Time;durP1;ratioP1;P1;durP2;ratioP2;P2;SDS_P1;SDS_P2;PMS_P1;PMS_P2;Temp;Humidity;BMP_temperature;BMP_pressure;BME280_temperature;BME280_humidity;BME280_pressure;Samples;Min_cycle;Max_cycle;Signal;HPM_P1;HPM_P2
2023/04/20 00:01:03;;;;;;;5.23;3.97;;;;;;;3.46;92.40;98142.78;5073127;28;20729;-80
2023/04/20 00:03:31;;;;;;;4.77;4.10;;;;;;;3.53;91.97;98144.22;5073981;28;20263;-80
2023/04/20 00:06:00;;;;;;;5.87;4.97;;;;;;;3.55;91.86;98139.75;5073952;28;20348;-80
2023/04/20 00:08:27;;;;;;;5.90;4.13;;;;;;;3.58;91.30;98139.66;5073763;28;20208;-80
2023/04/20 00:10:53;;;;;;;5.77;4.30;;;;;;;3.70;89.66;98136.53;5072938;28;20224;-80
2023/04/20 00:13:20;;;;;;;5.77;4.03;;;;;;;3.74;88.74;98124.19;5073765;28;20205;-80
2023/04/20 00:15:46;;;;;;;4.90;3.80;;;;;;;3.74;88.70;98124.19;5073320;28;20229;-80
2023/04/20 00:18:14;;;;;;;5.00;3.90;;;;;;;3.72;88.80;98126.84;5073831;28;20215;-80
2023/04/20 00:20:41;;;;;;;7.23;4.37;;;;;;;3.70;89.21;98123.47;5072807;28;20233;-80
2023/04/20 00:23:09;;;;;;;5.03;4.17;;;;;;;3.63;90.17;98131.63;5073719;28;20204;-80
2023/04/20 00:25:35;;;;;;;5.97;4.07;;;;;;;3.60;90.81;98127.34;5073524;28;20585;-80
2023/04/20 00:28:02;;;;;;;5.07;3.50;;;;;;;3.55;90.82;98116.25;5073418;28;20229;-80
2023/04/20 00:30:28;;;;;;;7.03;4.57;;;;;;;3.55;90.62;98113.63;5072421;28;20247;-80
2023/04/20 00:32:55;;;;;;;6.40;4.40;;;;;;;3.58;90.58;98112.66;5073269;28;20208;-80
2023/04/20 00:35:21;;;;;;;6.33;4.67;;;;;;;3.54;91.00;98111.94;5073334;28;20233;-80
2023/04/20 00:37:48;;;;;;;5.93;4.60;;;;;;;3.52;91.14;98103.31;5073289;28;20291;-79
2023/04/20 00:40:16;;;;;;;6.20;4.23;;;;;;;3.43;91.56;98098.47;5072265;28;20233;-79
2023/04/20 00:42:42;;;;;;;4.83;4.33;;;;;;;3.41;92.43;98105.53;5073121;28;20281;-80
2023/04/20 00:45:10;;;;;;;4.57;4.17;;;;;;;3.44;92.97;98097.56;5073224;28;20212;-80
2023/04/20 00:47:36;;;;;;;7.50;4.07;;;;;;;3.49;92.60;98098.22;5073295;28;20205;-80
2023/04/20 00:50:03;;;;;;;4.93;4.20;;;;;;;3.47;93.00;98089.59;5072479;28;20228;-80
2023/04/20 00:52:30;;;;;;;4.70;4.20;;;;;;;3.46;92.81;98092.25;5073021;28;20214;-80
2023/04/20 00:54:57;;;;;;;5.23;4.17;;;;;;;3.44;92.70;98087.13;5072899;28;20224;-80
2023/04/20 00:57:26;;;;;;;6.53;4.77;;;;;;;3.37;93.16;98082.22;5072882;28;20208;-80
2023/04/20 00:59:55;;;;;;;5.97;4.10;;;;;;;3.25;94.24;98083.56;5069867;28;20263;-80
2023/04/20 01:02:21;;;;;;;4.70;4.10;;;;;;;3.20;95.08;98076.84;5070098;28;20219;-80
2023/04/20 01:04:48;;;;;;;5.47;4.23;;;;;;;3.11;95.21;98078.06;5069940;28;20671;-80
2023/04/20 01:07:14;;;;;;;6.43;4.67;;;;;;;3.10;96.25;98078.97;5071335;28;20219;-80
2023/04/20 01:09:41;;;;;;;4.90;4.40;;;;;;;3.08;96.75;98074.72;5071889;28;20230;-80
2023/04/20 01:12:09;;;;;;;7.77;4.63;;;;;;;3.00;97.83;98080.25;5072882;28;20227;-80
2023/04/20 01:14:37;;;;;;;8.07;4.33;;;;;;;3.00;98.30;98077.63;5072724;28;20214;-80
2023/04/20 01:17:04;;;;;;;7.90;4.67;;;;;;;2.96;99.07;98068.25;5072545;28;20236;-80
2023/04/20 01:19:31;;;;;;;4.23;3.80;;;;;;;2.93;99.73;98064.91;5071851;28;20251;-80
2023/04/20 01:21:58;;;;;;;5.77;4.60;;;;;;;2.87;100.00;98063.38;5072546;28;20223;-80
2023/04/20 01:24:26;;;;;;;4.97;4.27;;;;;;;2.89;100.00;98058.09;5072271;28;20212;-80
2023/04/20 01:26:53;;;;;;;5.57;4.40;;;;;;;2.87;100.00;98055.53;5072564;28;20212;-80
2023/04/20 01:29:19;;;;;;;6.87;4.40;;;;;;;2.86;100.00;98046.03;5071475;28;20244;-80
2023/04/20 01:31:46;;;;;;;5.77;4.53;;;;;;;2.93;100.00;98044.84;5072471;28;20215;-80
2023/04/20 01:34:14;;;;;;;5.83;4.93;;;;;;;2.87;100.00;98039.06;5072328;28;20208;-80
2023/04/20 01:36:40;;;;;;;6.53;4.43;;;;;;;2.98;99.18;98036.84;5072009;28;20227;-80
2023/04/20 01:39:07;;;;;;;7.10;4.50;;;;;;;3.10;96.70;98024.13;5071593;28;20239;-80
2023/04/20 01:41:35;;;;;;;6.47;4.50;;;;;;;3.13;95.16;98016.16;5072245;28;20243;-80
2023/04/20 01:44:01;;;;;;;7.37;4.23;;;;;;;3.33;92.98;98007.50;5072065;28;20539;-80
2023/04/20 01:46:28;;;;;;;6.47;4.23;;;;;;;3.47;91.11;97999.91;5072027;28;20208;-80
2023/04/20 01:48:54;;;;;;;4.50;4.10;;;;;;;3.46;90.04;97988.63;5071879;28;20262;-80
2023/04/20 01:51:21;;;;;;;5.30;4.03;;;;;;;3.51;89.87;97986.69;5070603;28;20203;-80
2023/04/20 01:53:47;;;;;;;5.40;4.73;;;;;;;3.53;89.22;97984.84;5071755;28;20207;-80
2023/04/20 01:56:14;;;;;;;5.53;4.63;;;;;;;3.35;89.68;97980.41;5071747;28;20223;-80
2023/04/20 01:58:42;;;;;;;5.33;4.47;;;;;;;3.26;91.16;97985.19;5071613;28;20298;-80
2023/04/20 02:01:08;;;;;;;6.07;4.27;;;;;;;3.30;91.26;97991.97;5070977;28;20207;-80
2023/04/20 02:03:35;;;;;;;6.90;4.57;;;;;;;3.20;91.60;97993.25;5071550;28;20209;-80
2023/04/20 02:06:01;;;;;;;5.90;4.50;;;;;;;3.16;92.09;97984.72;5071587;28;20227;-80
2023/04/20 02:08:27;;;;;;;7.43;5.20;;;;;;;3.22;92.27;97981.84;5071689;28;20329;-80
2023/04/20 02:10:54;;;;;;;7.93;4.67;;;;;;;3.33;91.38;97977.03;5070985;28;20216;-80
2023/04/20 02:13:21;;;;;;;5.43;4.50;;;;;;;3.30;90.95;97971.91;5071500;28;20215;-80
2023/04/20 02:15:49;;;;;;;6.70;4.50;;;;;;;3.43;90.48;97980.09;5071353;28;20229;-80
2023/04/20 02:18:16;;;;;;;6.03;4.10;;;;;;;3.44;89.84;97972.19;5071298;28;20583;-80
2023/04/20 02:20:42;;;;;;;7.60;4.30;;;;;;;3.40;89.70;97973.22;5070536;28;20674;-80
2023/04/20 02:23:09;;;;;;;5.77;4.47;;;;;;;3.34;89.63;97968.25;5071553;28;20208;-80
2023/04/20 02:25:35;;;;;;;6.70;4.90;;;;;;;3.28;90.39;97968.53;5071502;28;20204;-80
2023/04/20 02:28:02;;;;;;;6.67;4.53;;;;;;;3.19;90.90;97974.13;5071582;28;20212;-80
2023/04/20 02:30:29;;;;;;;6.27;4.50;;;;;;;3.06;91.46;97966.91;5023559;22;20239;-80
2023/04/20 02:32:56;;;;;;;5.83;4.40;;;;;;;2.94;92.32;97972.63;4969940;28;20215;-80
2023/04/20 02:35:23;;;;;;;7.53;4.73;;;;;;;2.89;92.99;97978.03;4970130;28;20217;-80
2023/04/20 02:37:50;;;;;;;5.30;4.80;;;;;;;2.68;94.72;97971.09;4969844;28;20211;-80
2023/04/20 02:40:16;;;;;;;8.20;5.50;;;;;;;2.52;96.05;97972.59;4969182;28;20272;-80
2023/04/20 02:42:43;;;;;;;7.03;5.33;;;;;;;2.34;98.44;97970.72;4969831;28;20211;-80
2023/04/20 02:45:10;;;;;;;6.23;5.10;;;;;;;2.24;100.00;97973.75;4969624;28;20214;-80
2023/04/20 02:47:37;;;;;;;6.93;4.93;;;;;;;2.19;100.00;97968.72;4969784;28;20859;-79
2023/04/20 02:50:06;;;;;;;6.70;5.63;;;;;;;2.17;100.00;97965.34;4969088;28;20234;-79
2023/04/20 02:52:33;;;;;;;7.23;4.73;;;;;;;2.24;100.00;97958.97;4969811;28;20212;-79
2023/04/20 02:54:59;;;;;;;6.27;5.17;;;;;;;2.35;100.00;97950.72;4969554;28;20215;-79
2023/04/20 02:57:26;;;;;;;6.53;5.27;;;;;;;2.44;99.51;97945.97;4969531;28;20234;-79
2023/04/20 02:59:52;;;;;;;6.10;4.83;;;;;;;2.44;99.27;97939.94;4968867;28;20242;-79
2023/04/20 03:02:19;;;;;;;6.30;4.90;;;;;;;2.37;99.09;97943.69;4970816;28;20218;-79
2023/04/20 03:04:45;;;;;;;6.13;4.70;;;;;;;2.18;100.00;97948.78;4973309;28;20222;-79
2023/04/20 03:07:14;;;;;;;6.37;5.13;;;;;;;2.09;100.00;97956.13;4973199;28;20251;-79
2023/04/20 03:09:41;;;;;;;6.63;5.30;;;;;;;1.89;100.00;97956.88;4972312;28;20273;-79
2023/04/20 03:12:07;;;;;;;8.17;5.43;;;;;;;1.67;100.00;97965.53;4973125;28;20214;-79
2023/04/20 03:14:35;;;;;;;7.40;5.90;;;;;;;1.52;100.00;97960.88;4972987;28;20594;-79
2023/04/20 03:17:01;;;;;;;7.50;6.10;;;;;;;1.36;100.00;97965.78;4972573;28;20288;-79
2023/04/20 03:19:28;;;;;;;7.53;6.33;;;;;;;1.32;100.00;97950.34;4972222;28;20239;-79
2023/04/20 03:21:55;;;;;;;8.70;6.47;;;;;;;1.27;100.00;97953.09;4972812;28;20894;-79
2023/04/20 03:24:22;;;;;;;8.50;6.50;;;;;;;1.25;100.00;97949.72;4972580;28;20221;-79
2023/04/20 03:26:49;;;;;;;8.90;6.10;;;;;;;1.24;100.00;97950.59;4972570;28;20211;-79
2023/04/20 03:29:16;;;;;;;9.50;7.20;;;;;;;1.16;100.00;97950.03;4971699;28;20235;-79
2023/04/20 03:31:42;;;;;;;8.67;6.83;;;;;;;1.15;100.00;97952.69;4972716;28;20217;-79
2023/04/20 03:34:09;;;;;;;8.20;6.30;;;;;;;1.08;100.00;97949.44;4972741;28;20217;-79
2023/04/20 03:36:35;;;;;;;10.77;7.20;;;;;;;1.02;100.00;97949.66;4972627;28;20263;-79
2023/04/20 03:39:03;;;;;;;12.43;7.80;;;;;;;1.00;100.00;97951.44;4972138;28;20249;-79
2023/04/20 03:41:31;;;;;;;12.43;7.27;;;;;;;0.96;100.00;97949.88;4971862;28;20215;-80
2023/04/20 03:43:57;;;;;;;9.20;7.30;;;;;;;0.98;100.00;97952.44;4972438;28;20234;-80
2023/04/20 03:46:24;;;;;;;11.10;7.60;;;;;;;0.97;100.00;97955.91;4972683;28;20208;-79
2023/04/20 03:48:50;;;;;;;9.20;7.37;;;;;;;0.98;100.00;97947.22;4972403;28;20215;-79
2023/04/20 03:51:17;;;;;;;9.73;6.97;;;;;;;0.96;100.00;97949.88;4971812;28;20255;-79
2023/04/20 03:53:43;;;;;;;9.50;7.30;;;;;;;0.96;100.00;97944.66;4972148;28;20702;-79
2023/04/20 03:56:10;;;;;;;8.80;7.10;;;;;;;0.97;100.00;97946.38;4972096;28;20235;-79
2023/04/20 03:58:38;;;;;;;10.37;7.07;;;;;;;0.99;100.00;97943.72;4972168;28;20219;-78
2023/04/20 04:01:06;;;;;;;10.70;7.73;;;;;;;0.95;100.00;97944.72;4971754;28;20236;-79
2023/04/20 04:03:33;;;;;;;10.57;7.63;;;;;;;0.97;100.00;97948.97;4972419;28;20207;-79
2023/04/20 04:06:00;;;;;;;11.30;7.63;;;;;;;1.02;100.00;97936.66;4971961;28;20699;-79
2023/04/20 04:08:26;;;;;;;9.23;7.47;;;;;;;1.07;100.00;97937.34;4972081;28;20712;-79
2023/04/20 04:10:53;;;;;;;9.90;7.40;;;;;;;1.09;100.00;97943.34;4971141;28;20237;-79
2023/04/20 04:13:20;;;;;;;11.97;7.90;;;;;;;1.07;100.00;97941.69;4971593;28;20212;-79
2023/04/20 04:15:47;;;;;;;11.43;7.00;;;;;;;1.07;100.00;97937.34;4971825;28;20301;-80
2023/04/20 04:18:14;;;;;;;10.17;8.10;;;;;;;1.07;100.00;97936.50;4972025;28;20242;-80
2023/04/20 04:20:40;;;;;;;12.33;7.40;;;;;;;1.14;100.00;97933.63;4971055;28;20237;-80
2023/04/20 04:23:07;;;;;;;9.87;7.80;;;;;;;1.28;100.00;97933.97;4971741;28;20219;-80
2023/04/20 04:25:33;;;;;;;9.20;7.00;;;;;;;1.30;100.00;97931.31;4972043;28;20236;-80
2023/04/20 04:28:00;;;;;;;9.60;7.30;;;;;;;1.20;100.00;97932.53;4972016;28;20296;-80
2023/04/20 04:30:27;;;;;;;9.00;6.60;;;;;;;1.09;100.00;97935.53;4970908;28;20234;-80
2023/04/20 04:32:55;;;;;;;8.53;6.93;;;;;;;1.04;100.00;97929.63;4971833;28;20281;-79
2023/04/20 04:35:21;;;;;;;8.77;6.53;;;;;;;1.03;100.00;97938.34;4971684;28;20222;-80
2023/04/20 04:37:48;;;;;;;10.10;7.50;;;;;;;1.03;100.00;97935.75;4971428;28;20227;-80
2023/04/20 04:40:15;;;;;;;12.17;8.13;;;;;;;1.05;100.00;97936.53;4970628;28;20236;-80
2023/04/20 04:42:41;;;;;;;10.73;6.93;;;;;;;1.13;100.00;97931.94;4971810;28;20587;-80
2023/04/20 04:45:09;;;;;;;8.63;7.10;;;;;;;1.27;100.00;97940.09;4971732;28;20211;-79
2023/04/20 04:47:36;;;;;;;8.47;6.93;;;;;;;1.37;100.00;97936.25;4971574;28;20213;-80
2023/04/20 04:50:04;;;;;;;9.87;7.00;;;;;;;1.44;100.00;97932.53;4970703;28;20734;-79
2023/04/20 04:52:31;;;;;;;10.43;7.20;;;;;;;1.52;100.00;97925.28;4971497;28;20211;-79
2023/04/20 04:54:58;;;;;;;9.23;7.23;;;;;;;1.58;100.00;97935.47;4971199;28;20207;-79
2023/04/20 04:57:25;;;;;;;9.43;6.53;;;;;;;1.58;100.00;97930.25;4971388;28;20240;-79
2023/04/20 04:59:51;;;;;;;8.77;7.33;;;;;;;1.61;100.00;97924.09;4970634;28;20645;-78
2023/04/20 05:02:18;;;;;;;11.20;6.73;;;;;;;1.69;100.00;97925.50;4971682;28;20211;-79
2023/04/20 05:04:45;;;;;;;9.73;7.40;;;;;;;1.70;100.00;97924.59;4971535;28;20211;-79
2023/04/20 05:07:17;;;;;;;9.20;7.33;;;;;;;1.71;100.00;97922.84;4971182;28;20207;-79
2023/04/20 05:09:43;;;;;;;8.13;7.17;;;;;;;1.80;100.00;97928.56;4970647;28;20593;-79
2023/04/20 05:12:10;;;;;;;9.97;7.10;;;;;;;1.81;100.00;97932.88;4971515;28;20215;-79
2023/04/20 05:14:36;;;;;;;8.93;6.93;;;;;;;1.91;100.00;97934.19;4971276;28;20211;-81
2023/04/20 05:17:04;;;;;;;8.90;7.70;;;;;;;2.02;100.00;97934.63;4971076;28;20227;-81
2023/04/20 05:19:30;;;;;;;9.63;7.20;;;;;;;2.08;100.00;97931.78;4970315;28;20244;-79
2023/04/20 05:21:57;;;;;;;10.33;7.70;;;;;;;2.13;100.00;97937.69;4970992;28;20212;-81
2023/04/20 05:24:25;;;;;;;10.70;6.97;;;;;;;2.18;100.00;97938.34;4970814;28;20638;-79
2023/04/20 05:26:52;;;;;;;9.63;7.33;;;;;;;2.21;100.00;97946.03;4969983;28;20218;-79
2023/04/20 05:29:18;;;;;;;11.13;7.50;;;;;;;2.29;100.00;97944.00;4970105;28;20246;-79
2023/04/20 05:31:45;;;;;;;10.67;7.77;;;;;;;2.44;100.00;97943.38;4970471;28;20223;-79
2023/04/20 05:34:11;;;;;;;10.20;7.33;;;;;;;2.56;100.00;97940.28;4970849;28;20313;-79
2023/04/20 05:36:39;;;;;;;11.60;7.80;;;;;;;2.61;100.00;97938.34;4970565;28;20239;-79
2023/04/20 05:39:06;;;;;;;8.83;7.13;;;;;;;2.72;100.00;97941.34;4970327;28;20218;-80
2023/04/20 05:41:34;;;;;;;7.43;6.37;;;;;;;2.86;100.00;97933.78;4970540;28;20215;-80
2023/04/20 05:44:00;;;;;;;8.43;6.80;;;;;;;2.92;100.00;97938.75;4970727;28;20571;-79
2023/04/20 05:46:28;;;;;;;9.17;6.60;;;;;;;2.98;100.00;97930.66;4970632;28;20218;-79
2023/04/20 05:48:54;;;;;;;9.77;7.47;;;;;;;3.14;100.00;97931.72;4970603;28;20236;-79
2023/04/20 05:51:21;;;;;;;11.17;7.30;;;;;;;3.26;100.00;97931.19;4970087;28;20227;-79
2023/04/20 05:53:48;;;;;;;8.73;7.40;;;;;;;3.38;100.00;97935.88;4970950;28;20679;-81
2023/04/20 05:56:14;;;;;;;8.17;6.53;;;;;;;3.50;100.00;97924.03;4970399;28;20213;-83
2023/04/20 05:58:43;;;;;;;8.13;6.83;;;;;;;3.63;100.00;97918.19;4970561;28;20220;-82
2023/04/20 06:01:10;;;;;;;11.13;6.83;;;;;;;3.88;100.00;97916.16;4969747;28;20733;-83
2023/04/20 06:03:36;;;;;;;8.60;6.50;;;;;;;4.32;100.00;97908.81;4969698;28;20215;-83
2023/04/20 06:06:03;;;;;;;9.30;6.30;;;;;;;4.63;97.07;97902.03;4970095;28;20216;-83
2023/04/20 06:08:30;;;;;;;8.83;6.43;;;;;;;4.75;95.15;97898.81;4970494;28;20214;-83
2023/04/20 06:10:57;;;;;;;10.00;6.70;;;;;;;4.97;93.75;97904.69;4969583;28;20307;-81
2023/04/20 06:13:23;;;;;;;7.73;6.03;;;;;;;5.44;93.11;97904.84;4970380;28;20217;-82
2023/04/20 06:15:51;;;;;;;7.43;5.80;;;;;;;5.88;89.72;97895.47;4970241;28;20217;-83
2023/04/20 06:18:18;;;;;;;7.73;6.07;;;;;;;6.11;87.17;97890.66;4969920;28;20309;-83
2023/04/20 06:20:44;;;;;;;7.43;6.03;;;;;;;5.97;87.75;97895.81;4969627;28;20237;-82
2023/04/20 06:23:11;;;;;;;7.87;5.77;;;;;;;5.72;89.50;97905.91;4970389;28;20215;-83
2023/04/20 06:25:39;;;;;;;7.43;6.50;;;;;;;5.46;90.87;97909.09;4970039;28;20265;-79
2023/04/20 06:28:05;;;;;;;7.23;6.07;;;;;;;5.31;92.97;97911.66;4970089;28;20205;-79
2023/04/20 06:30:32;;;;;;;9.60;6.57;;;;;;;5.25;94.12;97912.78;4969130;28;20761;-79
2023/04/20 06:33:00;;;;;;;9.73;6.93;;;;;;;5.21;94.81;97907.81;4970156;28;20235;-79
2023/04/20 06:35:27;;;;;;;8.17;6.17;;;;;;;5.21;95.11;97908.66;4971570;28;20214;-84
2023/04/20 06:37:56;;;;;;;9.07;6.50;;;;;;;5.18;95.00;97907.94;4970128;28;20774;-77
2023/04/20 06:40:22;;;;;;;7.23;5.63;;;;;;;5.23;90.94;97895.47;4969105;28;20793;-79
2023/04/20 06:42:49;;;;;;;7.50;5.97;;;;;;;5.22;88.86;97893.78;4969920;28;20229;-78
2023/04/20 06:45:17;;;;;;;6.97;5.70;;;;;;;5.13;88.44;97889.84;4969804;28;20229;-83
2023/04/20 06:47:43;;;;;;;8.33;5.97;;;;;;;5.15;88.29;97890.63;4970018;28;20221;-83
2023/04/20 06:50:11;;;;;;;6.30;5.70;;;;;;;5.26;91.05;97895.31;4968885;28;20232;-83
2023/04/20 06:52:39;;;;;;;8.00;6.57;;;;;;;5.40;91.27;97904.16;4970000;28;20222;-83
2023/04/20 06:55:06;;;;;;;8.03;5.80;;;;;;;5.42;91.24;97896.19;4969840;28;20679;-80
2023/04/20 06:57:33;;;;;;;7.37;5.70;;;;;;;5.63;90.97;97905.56;4969741;28;20252;-78
2023/04/20 07:00:00;;;;;;;7.57;6.37;;;;;;;5.67;90.50;97892.19;4967801;28;20233;-82
2023/04/20 07:02:27;;;;;;;8.30;6.53;;;;;;;5.76;89.90;97889.09;4967366;28;20706;-82
2023/04/20 07:04:53;;;;;;;8.73;6.33;;;;;;;5.85;89.61;97891.25;4968014;28;20224;-82
2023/04/20 07:07:21;;;;;;;9.93;6.47;;;;;;;6.00;89.09;97890.44;4968950;28;20221;-82
2023/04/20 07:09:48;;;;;;;9.10;7.10;;;;;;;6.11;88.72;97882.78;4967396;28;20234;-83
2023/04/20 07:12:15;;;;;;;9.20;6.70;;;;;;;6.22;89.37;97890.91;4968976;28;20246;-82
2023/04/20 07:14:42;;;;;;;10.03;6.53;;;;;;;6.36;86.28;97880.47;4968841;28;20279;-80
2023/04/20 07:17:08;;;;;;;11.37;7.47;;;;;;;6.47;87.90;97878.09;4968035;28;20235;-80
2023/04/20 07:19:35;;;;;;;10.73;7.20;;;;;;;6.56;88.18;97877.59;4967556;28;20234;-80
2023/04/20 07:22:01;;;;;;;7.80;6.67;;;;;;;6.65;85.93;97863.09;4967831;28;20218;-79
2023/04/20 07:24:29;;;;;;;9.03;6.77;;;;;;;6.66;85.15;97857.72;4969493;28;20697;-77
2023/04/20 07:26:56;;;;;;;9.13;6.53;;;;;;;6.69;86.84;97870.69;4968647;28;20301;-77
2023/04/20 07:29:22;;;;;;;8.13;6.50;;;;;;;6.79;87.97;97876.25;4967489;28;20246;-76
2023/04/20 07:31:49;;;;;;;8.77;7.03;;;;;;;6.89;88.66;97888.75;4969205;28;20244;-77
2023/04/20 07:34:15;;;;;;;9.60;6.43;;;;;;;7.01;88.38;97871.44;4969241;28;20241;-77
2023/04/20 07:36:42;;;;;;;11.53;6.83;;;;;;;7.14;88.66;97873.25;4969054;28;20332;-75
2023/04/20 07:39:08;;;;;;;9.60;6.77;;;;;;;7.16;87.13;97871.38;4968343;28;20714;-77
2023/04/20 07:41:37;;;;;;;9.00;6.80;;;;;;;7.28;87.21;97877.69;4968979;28;20211;-77
2023/04/20 07:44:03;;;;;;;8.30;6.93;;;;;;;7.48;87.27;97872.91;4969144;28;20211;-77
2023/04/20 07:46:30;;;;;;;10.77;7.47;;;;;;;7.75;87.28;97871.19;4966381;28;20732;-77
2023/04/20 07:48:57;;;;;;;9.57;6.87;;;;;;;8.13;84.16;97867.00;4969439;28;20806;-77
2023/04/20 07:51:23;;;;;;;13.67;8.80;;;;;;;8.36;78.87;97842.72;4969053;28;20219;-77
2023/04/20 07:53:50;;;;;;;8.13;7.27;;;;;;;8.44;81.90;97856.25;4969656;28;20222;-77
2023/04/20 07:56:16;;;;;;;7.47;6.67;;;;;;;8.48;81.54;97857.72;4969773;28;20206;-77
2023/04/20 07:58:44;;;;;;;10.20;6.73;;;;;;;8.44;78.02;97843.09;4971754;28;20689;-78
2023/04/20 08:01:11;;;;;;;9.50;7.30;;;;;;;8.55;82.30;97859.00;4971529;28;20236;-78
2023/04/20 08:03:37;;;;;;;9.03;7.10;;;;;;;8.70;82.15;97856.22;4971950;28;20587;-78
2023/04/20 08:06:04;;;;;;;10.57;7.40;;;;;;;8.72;81.40;97856.97;4972068;28;20211;-78
2023/04/20 08:08:30;;;;;;;8.40;6.97;;;;;;;8.77;80.38;97856.66;4971833;28;20208;-77
2023/04/20 08:10:57;;;;;;;8.47;6.73;;;;;;;8.85;77.22;97841.19;4971078;28;20226;-77
2023/04/20 08:13:24;;;;;;;8.87;7.43;;;;;;;9.01;79.54;97857.66;4971903;28;20239;-79
2023/04/20 08:15:52;;;;;;;8.83;7.03;;;;;;;9.06;81.26;97860.84;4972182;28;20589;-78
2023/04/20 08:18:18;;;;;;;8.30;7.37;;;;;;;9.17;78.15;97837.22;4971748;28;20243;-81
2023/04/20 08:20:45;;;;;;;9.00;7.03;;;;;;;9.28;78.91;97851.38;4971036;28;20845;-81
2023/04/20 08:23:13;;;;;;;8.07;7.13;;;;;;;9.25;77.15;97834.91;4971789;28;20218;-82
2023/04/20 08:25:39;;;;;;;10.33;5.97;;;;;;;9.24;77.54;97836.69;4971992;28;20208;-82
2023/04/20 08:28:06;;;;;;;7.63;6.70;;;;;;;9.21;77.40;97833.41;4971854;28;20208;-81
2023/04/20 08:30:32;;;;;;;7.70;6.77;;;;;;;9.14;76.48;97833.00;4984389;22;20236;-78
2023/04/20 08:33:00;;;;;;;9.77;6.80;;;;;;;9.14;77.09;97834.78;4971980;28;20213;-75
2023/04/20 08:35:27;;;;;;;9.70;7.20;;;;;;;9.03;75.78;97830.25;4971798;28;20297;-79
2023/04/20 08:37:53;;;;;;;7.33;6.60;;;;;;;8.92;77.37;97839.81;4971677;28;20601;-82
2023/04/20 08:40:27;;;;;;;9.20;7.47;;;;;;;8.75;78.59;97845.38;4970869;28;20242;-80
2023/04/20 08:42:53;;;;;;;9.07;6.60;;;;;;;8.59;79.71;97852.59;4971567;28;20683;-79
2023/04/20 08:45:20;;;;;;;9.37;6.80;;;;;;;8.47;79.94;97850.78;4971624;28;20681;-84
2023/04/20 08:47:47;;;;;;;8.57;6.70;;;;;;;8.38;80.71;97854.03;4971613;28;20671;-77
2023/04/20 08:50:16;;;;;;;9.00;7.17;;;;;;;8.43;80.60;97849.28;4970664;28;20756;-77
2023/04/20 08:52:42;;;;;;;8.37;7.47;;;;;;;8.42;80.85;97853.72;4971556;28;20224;-77
2023/04/20 08:55:09;;;;;;;8.43;7.57;;;;;;;8.52;80.63;97853.94;4971810;28;20212;-77
2023/04/20 08:57:36;;;;;;;9.43;7.27;;;;;;;8.49;79.81;97848.88;4971631;28;20699;-77
2023/04/20 09:00:07;;;;;;;9.03;7.27;;;;;;;8.34;80.69;97855.16;4970816;28;20239;-78
2023/04/20 09:02:33;;;;;;;8.97;7.10;;;;;;;8.29;81.46;97846.69;4971469;28;20216;-78
2023/04/20 09:05:04;;;;;;;8.87;7.10;;;;;;;8.29;81.41;97852.81;4971255;28;20216;-78
2023/04/20 09:07:32;;;;;;;9.40;7.23;;;;;;;8.30;81.40;97853.66;4971732;28;20212;-78
2023/04/20 09:10:00;;;;;;;8.67;6.77;;;;;;;8.23;81.54;97853.22;4970756;28;20254;-78
2023/04/20 09:12:28;;;;;;;8.00;6.67;;;;;;;8.17;81.61;97850.09;4971221;28;20227;-79
2023/04/20 09:14:55;;;;;;;7.53;6.47;;;;;;;8.13;82.19;97856.47;4971292;28;20642;-80
2023/04/20 09:17:31;;;;;;;9.37;7.13;;;;;;;8.14;82.75;97858.19;4970977;28;20389;-79
2023/04/20 09:19:58;;;;;;;10.93;7.27;;;;;;;8.12;83.17;97865.31;4970187;28;20231;-77
2023/04/20 09:22:32;;;;;;;9.77;7.13;;;;;;;8.11;84.02;97866.25;4971409;28;20217;-76
2023/04/20 09:25:00;;;;;;;9.53;7.13;;;;;;;8.10;84.60;97861.94;4971389;28;20233;-76
2023/04/20 09:27:26;;;;;;;8.10;6.80;;;;;;;8.12;84.47;97860.06;4970988;28;20211;-77
2023/04/20 09:29:57;;;;;;;8.73;6.77;;;;;;;8.11;84.77;97853.09;4969972;28;20338;-75
2023/04/20 09:32:25;;;;;;;9.20;7.60;;;;;;;8.15;84.22;97847.53;4971215;28;20219;-77
2023/04/20 09:34:51;;;;;;;8.63;7.23;;;;;;;8.20;84.28;97860.47;4970845;28;20211;-77
2023/04/20 09:37:18;;;;;;;8.73;6.60;;;;;;;8.20;85.28;97847.31;4970868;28;20216;-79
2023/04/20 09:39:46;;;;;;;8.40;7.50;;;;;;;8.31;84.94;97844.78;4970003;28;20667;-76
2023/04/20 09:42:14;;;;;;;8.33;6.80;;;;;;;8.41;83.61;97840.63;4970853;28;20567;-75
2023/04/20 09:44:42;;;;;;;9.00;6.73;;;;;;;8.52;81.94;97831.06;4970770;28;20211;-75
2023/04/20 09:47:09;;;;;;;8.80;7.00;;;;;;;8.57;81.65;97821.09;4970827;28;20700;-77
2023/04/20 09:49:35;;;;;;;9.37;7.53;;;;;;;8.65;81.51;97817.97;4969881;28;20228;-77
2023/04/20 09:52:03;;;;;;;8.40;7.50;;;;;;;8.61;81.02;97817.31;4970486;28;20223;-76
2023/04/20 09:54:30;;;;;;;9.30;6.90;;;;;;;8.62;81.28;97820.81;4970382;28;20212;-75
2023/04/20 09:57:00;;;;;;;8.50;7.43;;;;;;;8.71;80.75;97822.81;4970392;28;20227;-76
2023/04/20 09:59:27;;;;;;;7.70;6.40;;;;;;;8.69;80.95;97827.34;4969701;28;20317;-76
2023/04/20 10:01:54;;;;;;;8.60;6.83;;;;;;;8.74;81.46;97830.50;4970370;28;20220;-76
2023/04/20 10:04:20;;;;;;;9.63;7.30;;;;;;;8.73;81.72;97831.44;4970395;28;20224;-76
2023/04/20 10:07:02;;;;;;;9.03;7.20;;;;;;;8.70;81.55;97826.41;4970372;28;20515;-76
2023/04/20 10:09:30;;;;;;;7.67;6.43;;;;;;;8.82;81.61;97820.31;4969363;28;20699;-76
2023/04/20 10:12:07;;;;;;;7.50;6.47;;;;;;;8.79;79.99;97807.31;4969561;28;20248;-76
2023/04/20 10:14:34;;;;;;;8.33;7.03;;;;;;;8.88;80.37;97814.63;4970188;28;20209;-76
2023/04/20 10:17:02;;;;;;;8.73;7.13;;;;;;;8.91;80.42;97819.69;4970393;28;20313;-76
2023/04/20 10:19:40;;;;;;;8.57;6.93;;;;;;;8.95;79.43;97810.63;4969294;28;20891;-76
2023/04/20 10:22:07;;;;;;;8.43;6.60;;;;;;;8.90;79.89;97803.03;4969851;28;20208;-77
2023/04/20 10:24:34;;;;;;;9.70;6.47;;;;;;;8.98;81.17;97810.41;4970121;28;20212;-75
2023/04/20 10:27:02;;;;;;;8.23;6.60;;;;;;;9.13;80.63;97804.09;4970187;28;20219;-75
2023/04/20 10:29:31;;;;;;;7.37;6.63;;;;;;;9.14;80.88;97800.50;4969135;28;20260;-76
2023/04/20 10:31:57;;;;;;;8.07;6.80;;;;;;;9.12;81.00;97797.16;4969609;28;20212;-77
2023/04/20 10:34:31;;;;;;;11.43;8.43;;;;;;;9.33;79.40;97806.22;4968992;28;20451;-77
2023/04/20 10:37:08;;;;;;;7.83;7.00;;;;;;;9.34;78.68;97792.91;4970016;28;20216;-76
2023/04/20 10:39:36;;;;;;;8.97;7.13;;;;;;;9.24;79.12;97791.03;4969036;28;20248;-78
2023/04/20 10:42:03;;;;;;;7.43;6.13;;;;;;;9.09;78.56;97786.81;4969776;28;20316;-78
2023/04/20 10:44:33;;;;;;;7.90;6.33;;;;;;;9.14;82.28;97805.78;4969519;28;20214;-77
2023/04/20 10:46:59;;;;;;;8.93;6.17;;;;;;;9.03;81.05;97803.03;4969551;28;20212;-75
2023/04/20 10:49:27;;;;;;;7.57;6.63;;;;;;;8.84;83.47;97800.81;4969273;28;20213;-79
2023/04/20 10:51:54;;;;;;;12.90;7.20;;;;;;;8.60;84.33;97801.59;4970179;28;20215;-76
2023/04/20 10:54:21;;;;;;;8.50;6.97;;;;;;;8.50;88.20;97813.72;4969594;28;20675;-77
2023/04/20 10:56:50;;;;;;;8.67;6.60;;;;;;;8.43;91.21;97815.88;4969779;28;20215;-77
2023/04/20 10:59:18;;;;;;;6.97;6.27;;;;;;;8.46;93.20;97799.88;4968750;28;20239;-77
2023/04/20 11:01:46;;;;;;;7.33;6.13;;;;;;;8.33;95.42;97800.81;4968846;28;20222;-77
2023/04/20 11:04:13;;;;;;;7.40;5.33;;;;;;;8.28;95.85;97785.31;4969020;28;20303;-80
2023/04/20 11:06:41;;;;;;;6.60;5.90;;;;;;;8.21;95.72;97775.28;4966710;28;20304;-78
2023/04/20 11:09:18;;;;;;;8.03;6.10;;;;;;;8.06;99.17;97776.22;4966014;28;20617;-79
2023/04/20 11:11:45;;;;;;;6.37;5.77;;;;;;;7.91;100.00;97779.84;4967003;28;20264;-77
2023/04/20 11:14:13;;;;;;;7.17;6.37;;;;;;;7.68;100.00;97776.06;4969274;28;20222;-80
2023/04/20 11:16:40;;;;;;;7.77;6.77;;;;;;;7.55;100.00;97769.03;4968801;28;20214;-79
2023/04/20 11:19:08;;;;;;;7.57;6.53;;;;;;;7.34;100.00;97773.84;4966151;28;20239;-78
2023/04/20 11:21:37;;;;;;;9.50;7.50;;;;;;;7.23;100.00;97783.34;4966452;28;20266;-78
2023/04/20 11:24:04;;;;;;;8.97;7.40;;;;;;;7.14;100.00;97768.13;4967398;28;20263;-79
2023/04/20 11:26:37;;;;;;;11.47;7.70;;;;;;;7.04;100.00;97772.28;4972626;28;20243;-79
2023/04/20 11:29:04;;;;;;;9.50;7.77;;;;;;;7.10;100.00;97764.00;4972214;28;20602;-80
2023/04/20 11:31:30;;;;;;;10.10;8.50;;;;;;;7.09;100.00;97758.84;4969310;28;20238;-80
2023/04/20 11:33:57;;;;;;;9.97;7.87;;;;;;;7.15;100.00;97761.94;4970333;28;20310;-78
2023/04/20 11:36:27;;;;;;;10.63;8.93;;;;;;;7.32;100.00;97755.66;4969784;28;20215;-78